Pretty Universe — V7ZV3 — position and weather

sailwx.info

Track history (hours):
 
Tides and Currents Weather Stations Pressure Air Temp Water Temp Dewpoint Dewpoint Depression Visibility Wind Speed Wind Dir Waves Ship Positions

Pretty Universe

Last reported at 2018-Jun-19 05:59 UTC. Time now 2018-Jun-19 12:20 UTC.
Position N 51°47' E 002°37'.

Length 180 m; draft 6.3 m.

Type: Cargo ship. MMSI: 538004922.

Date/timePositionNaut miles runAvg speedWind from/ knotsBaromVisibWave heightAir tempDewpointWater temp
2018-Jun-19 05:59N 51°47' E 002°37'715.4
2018-Jun-19 05:30N 51°42' E 002°30'815.4
2018-Jun-19 05:00N 51°36' E 002°21'815.6
2018-Jun-19 04:30N 51°30' E 002°13'815.5
2018-Jun-19 04:00N 51°24' E 002°04'815.4
2018-Jun-19 03:31N 51°18' E 001°57'815.6
2018-Jun-19 03:00N 51°12' E 001°49'815.3
2018-Jun-19 02:31N 51°06' E 001°42'815.4
2018-Jun-19 02:00N 50°59' E 001°36'815.2
2018-Jun-19 01:31N 50°53' E 001°28'814.5
2018-Jun-19 00:58N 50°46' E 001°25'713.8
2018-Jun-19 00:27N 50°40' E 001°19'1114.2
2018-Jun-18 23:40N 50°32' E 001°06'314.2
2018-Jun-18 23:27N 50°30' E 001°02'713.9
2018-Jun-18 22:57N 50°28' E 000°52'3713.4
2018-Jun-18 20:11N 50°18' W 000°04'512.4
2018-Jun-18 19:49N 50°17' W 000°11'412.1
2018-Jun-18 19:29N 50°16' W 000°17'1311.6
2018-Jun-18 18:24N 50°13' W 000°36'4111.6
2018-Jun-18 14:51N 50°01' W 001°38'613.8
2018-Jun-18 14:27N 49°60' W 001°46'1214.6
2018-Jun-18 13:39N 49°57' W 002°04'315.4
2018-Jun-18 13:26N 49°56' W 002°09'2815.6
2018-Jun-18 11:39N 49°48' W 002°50'1515.3
2018-Jun-18 10:41N 49°42' W 003°11'415.2
2018-Jun-18 10:25N 49°40' W 003°17'2115.1
2018-Jun-18 09:03N 49°30' W 003°45'615.2
2018-Jun-18 08:40N 49°27' W 003°53'315.3
2018-Jun-18 08:27N 49°26' W 003°57'715.2
2018-Jun-18 07:59N 49°22' W 004°06'915.1
2018-Jun-18 07:22N 49°18' W 004°19'714.9
2018-Jun-18 06:54N 49°14' W 004°28'614.9
2018-Jun-18 06:30N 49°11' W 004°36'714.7
2018-Jun-18 06:01N 49°08' W 004°46'714.6
2018-Jun-18 05:31N 49°04' W 004°55'714.2
2018-Jun-18 05:00N 49°01' W 005°05'714.0
2018-Jun-18 04:30N 48°57' W 005°14'713.8
2018-Jun-18 03:59N 48°53' W 005°23'713.4
2018-Jun-18 03:28N 48°49' W 005°32'52012.3
2018-Jun-16 09:02N 40°42' W 009°50'311.1
2018-Jun-16 08:45N 40°39' W 009°50'311.2
2018-Jun-16 08:31N 40°36' W 009°50'611.1
2018-Jun-16 07:59N 40°30' W 009°51'510.9
2018-Jun-16 07:29N 40°25' W 009°51'1710.7
2018-Jun-16 05:56N 40°09' W 009°50'510.7
2018-Jun-16 05:30N 40°04' W 009°50'610.6
2018-Jun-16 04:56N 39°58' W 009°50'410.6
2018-Jun-16 04:31N 39°53' W 009°50'510.3
2018-Jun-16 04:00N 39°48' W 009°50'510.6
2018-Jun-16 03:30N 39°43' W 009°50'710.4
2018-Jun-16 02:52N 39°36' W 009°51'410.1
2018-Jun-16 02:30N 39°33' W 009°51'510.3
2018-Jun-16 02:01N 39°27' W 009°51'510.2
2018-Jun-16 01:30N 39°22' W 009°52'510.2
2018-Jun-16 01:01N 39°17' W 009°52'510.0
2018-Jun-16 00:30N 39°12' W 009°52'510.5
2018-Jun-16 00:00N 39°07' W 009°52'510.8
2018-Jun-15 23:31N 39°02' W 009°52'510.9
2018-Jun-15 23:01N 38°56' W 009°52'510.8
2018-Jun-15 22:31N 38°51' W 009°52'611.2
2018-Jun-15 22:00N 38°45' W 009°51'510.8
2018-Jun-15 21:31N 38°40' W 009°50'510.5
2018-Jun-15 21:00N 38°36' W 009°46'611.6
2018-Jun-15 20:30N 38°33' W 009°39'612.2
2018-Jun-15 20:01N 38°30' W 009°33'612.4
2018-Jun-15 19:30N 38°27' W 009°26'713.1
2018-Jun-15 19:01N 38°24' W 009°18'612.6
2018-Jun-15 18:30N 38°22' W 009°11'713.5
2018-Jun-15 18:00N 38°24' W 009°02'611.0
2018-Jun-15 17:30N 38°28' W 008°57'5 9.9
2018-Jun-15 17:01N 38°31' W 008°52'1 2.2
2018-Jun-15 16:24N 38°30' W 008°51'0 0.0
2018-Jun-15 15:57N 38°30' W 008°51'0 0.0
2018-Jun-15 15:24N 38°30' W 008°51'0 0.0
2018-Jun-15 15:00N 38°30' W 008°51'0 0.0
2018-Jun-15 14:30N 38°30' W 008°51'0 0.0
2018-Jun-15 14:00N 38°30' W 008°51'0 0.0
2018-Jun-15 13:31N 38°30' W 008°51'0 0.0
2018-Jun-15 12:48N 38°30' W 008°51'0 0.0
2018-Jun-15 12:24N 38°30' W 008°51'0 0.0
2018-Jun-15 11:45N 38°30' W 008°51'0 0.0
2018-Jun-15 11:21N 38°30' W 008°51'0 0.0
2018-Jun-15 09:39N 38°30' W 008°51'0 0.0
2018-Jun-15 09:24N 38°30' W 008°51'0 0.0
2018-Jun-15 09:00N 38°30' W 008°51'0 0.0
2018-Jun-15 06:09N 38°30' W 008°51'0 0.0
2018-Jun-15 05:57N 38°30' W 008°51'0 0.0
2018-Jun-15 05:21N 38°30' W 008°51'0 0.0
2018-Jun-15 05:00N 38°30' W 008°51'0 0.0
2018-Jun-15 04:30N 38°30' W 008°51'0 0.0
2018-Jun-15 02:12N 38°30' W 008°51'0 0.0
2018-Jun-15 02:00N 38°30' W 008°51'0 0.0
2018-Jun-15 01:27N 38°30' W 008°51'0 0.0
2018-Jun-15 00:45N 38°30' W 008°51'0 0.0
2018-Jun-15 00:27N 38°30' W 008°51'0 0.0
2018-Jun-14 23:48N 38°30' W 008°51'0 0.0
2018-Jun-14 23:30N 38°30' W 008°51'0 0.0
2018-Jun-14 23:00N 38°30' W 008°51'0 0.0
2018-Jun-14 22:30N 38°30' W 008°51'0 0.0
2018-Jun-14 22:00N 38°30' W 008°51'0 0.0
2018-Jun-14 21:30N 38°30' W 008°51'0 0.0
2018-Jun-14 20:48N 38°30' W 008°51'0 0.0
2018-Jun-14 20:27N 38°30' W 008°51'0 0.0
2018-Jun-14 20:00N 38°30' W 008°51'0 0.0
2018-Jun-14 19:30N 38°30' W 008°51'0 0.0
2018-Jun-14 19:00N 38°30' W 008°51'0 0.0
2018-Jun-14 18:30N 38°30' W 008°51'0 0.0
2018-Jun-14 18:00N 38°30' W 008°51'0 0.0
2018-Jun-14 17:30N 38°30' W 008°51'0 0.0
2018-Jun-14 16:57N 38°30' W 008°51'0 0.0
2018-Jun-14 16:30N 38°30' W 008°51'0 0.0
2018-Jun-14 15:54N 38°30' W 008°51'0 0.0
2018-Jun-14 15:18N 38°30' W 008°51'0 0.0
2018-Jun-14 15:00N 38°30' W 008°51'0 0.0
2018-Jun-14 14:30N 38°30' W 008°51'0 0.0
2018-Jun-14 13:57N 38°30' W 008°51'0 0.0
2018-Jun-14 13:30N 38°30' W 008°51'0 0.0
2018-Jun-14 12:39N 38°30' W 008°51'0 0.0
2018-Jun-14 12:30N 38°30' W 008°51'0 0.0
2018-Jun-14 12:00N 38°30' W 008°51'0 0.0
2018-Jun-14 11:30N 38°30' W 008°51'0 0.0
2018-Jun-14 10:42N 38°30' W 008°51'0 0.0
2018-Jun-14 10:18N 38°30' W 008°51'0 0.0
2018-Jun-14 09:15N 38°30' W 008°51'0 0.0
2018-Jun-14 09:00N 38°30' W 008°51'0 0.0
2018-Jun-14 07:57N 38°30' W 008°51'0 0.0
2018-Jun-14 07:30N 38°30' W 008°51'0 0.0
2018-Jun-14 06:54N 38°30' W 008°51'0 0.0
2018-Jun-14 06:30N 38°30' W 008°51'0 0.0
2018-Jun-14 05:57N 38°30' W 008°51'0 0.0
2018-Jun-14 05:30N 38°30' W 008°51'0 0.0
2018-Jun-14 05:00N 38°30' W 008°51'0 0.0
2018-Jun-14 04:30N 38°30' W 008°51'0 0.0
2018-Jun-14 03:30N 38°30' W 008°51'0 0.0
2018-Jun-14 03:00N 38°30' W 008°51'0 0.0
2018-Jun-14 02:24N 38°30' W 008°51'0 0.0
2018-Jun-14 01:36N 38°30' W 008°51'0 0.1
2018-Jun-14 01:30N 38°30' W 008°51'0 0.0
2018-Jun-14 00:42N 38°30' W 008°51'0 0.0
2018-Jun-14 00:27N 38°30' W 008°51'0 0.0
2018-Jun-13 23:36N 38°30' W 008°51'0 0.0
2018-Jun-13 23:30N 38°30' W 008°51'0 0.0
2018-Jun-13 23:00N 38°30' W 008°51'0 0.0
2018-Jun-13 22:09N 38°30' W 008°51'0 0.0
2018-Jun-13 21:57N 38°30' W 008°51'0 0.0
2018-Jun-13 21:12N 38°30' W 008°51'0 0.0
2018-Jun-13 17:48N 38°30' W 008°51'0 0.0
2018-Jun-13 17:24N 38°30' W 008°51'0 0.0
2018-Jun-13 16:36N 38°30' W 008°51'0 0.0
2018-Jun-13 16:12N 38°30' W 008°51'0 0.0
2018-Jun-13 13:15N 38°30' W 008°51'0 0.0
2018-Jun-13 13:00N 38°30' W 008°51'0 0.0
2018-Jun-13 11:45N 38°30' W 008°51'0 0.0
2018-Jun-13 09:27N 38°30' W 008°51'0 0.0
2018-Jun-13 08:54N 38°30' W 008°51'0 0.0
2018-Jun-13 08:24N 38°30' W 008°51'0 0.0
2018-Jun-13 07:57N 38°30' W 008°51'0 0.0
2018-Jun-13 07:12N 38°30' W 008°51'0 0.0
2018-Jun-13 07:00N 38°30' W 008°51'0 0.0
2018-Jun-13 05:48N 38°30' W 008°51'0 0.0
2018-Jun-13 05:12N 38°30' W 008°51'0 0.0
2018-Jun-13 04:57N 38°30' W 008°51'0 0.0
2018-Jun-13 02:42N 38°30' W 008°51'0 0.0
2018-Jun-13 02:18N 38°30' W 008°51'0 0.0
2018-Jun-13 01:54N 38°30' W 008°51'0 0.0
2018-Jun-13 01:30N 38°30' W 008°51'0 0.0
2018-Jun-13 01:00N 38°30' W 008°51'0 0.0
2018-Jun-13 00:12N 38°30' W 008°51'0 0.0
2018-Jun-13 00:00N 38°30' W 008°51'0 0.0
2018-Jun-12 23:30N 38°30' W 008°51'0 0.0
2018-Jun-12 20:24N 38°30' W 008°51'0 0.0
2018-Jun-12 19:00N 38°30' W 008°51'0 0.0
2018-Jun-12 18:24N 38°30' W 008°51'0 0.0
2018-Jun-12 17:18N 38°30' W 008°51'0 0.0
2018-Jun-12 15:54N 38°30' W 008°51'0 0.0
2018-Jun-12 14:48N 38°30' W 008°51'0 0.0
2018-Jun-12 14:24N 38°30' W 008°51'0 0.0
2018-Jun-12 12:54N 38°30' W 008°51'0 0.0
2018-Jun-12 11:42N 38°30' W 008°51'0 0.0
2018-Jun-12 11:24N 38°30' W 008°51'0 0.0
2018-Jun-12 10:48N 38°30' W 008°51'0 0.0
2018-Jun-12 10:24N 38°30' W 008°51'0 0.0
2018-Jun-12 10:00N 38°30' W 008°51'0 0.0
2018-Jun-12 09:30N 38°30' W 008°51'0 0.0
2018-Jun-12 09:00N 38°30' W 008°51'0 0.0
2018-Jun-12 07:30N 38°30' W 008°51'0 0.0
2018-Jun-12 06:54N 38°30' W 008°51'0 0.0
2018-Jun-12 06:18N 38°30' W 008°51'0 0.0
2018-Jun-12 06:00N 38°30' W 008°51'0 0.0
2018-Jun-12 05:18N 38°30' W 008°51'0 0.0
2018-Jun-12 04:48N 38°30' W 008°51'0 0.0
2018-Jun-12 04:15N 38°30' W 008°51'0 0.0
2018-Jun-12 02:48N 38°30' W 008°51'0 0.0
2018-Jun-12 02:30N 38°30' W 008°51'0 0.0
2018-Jun-11 23:45N 38°30' W 008°51'0 0.0
2018-Jun-11 23:18N 38°30' W 008°51'0 0.0
2018-Jun-11 22:12N 38°30' W 008°51'0 0.0
2018-Jun-11 21:57N 38°30' W 008°51'0 0.0
2018-Jun-11 20:27N 38°30' W 008°51'0 0.0
2018-Jun-11 19:57N 38°30' W 008°51'0 0.0
2018-Jun-11 19:30N 38°30' W 008°51'0 0.0
2018-Jun-11 18:57N 38°30' W 008°51'0 0.0
2018-Jun-11 18:24N 38°30' W 008°51'0 0.0
2018-Jun-11 17:54N 38°30' W 008°51'0 0.0
2018-Jun-11 16:24N 38°30' W 008°51'0 0.0
2018-Jun-11 16:00N 38°30' W 008°51'0 0.0
2018-Jun-11 15:15N 38°30' W 008°51'0 0.0
2018-Jun-11 15:00N 38°30' W 008°51'0 0.0
2018-Jun-11 14:12N 38°30' W 008°51'0 0.0
2018-Jun-11 14:00N 38°30' W 008°51'0 0.0
2018-Jun-11 13:30N 38°30' W 008°51'0 0.0
2018-Jun-11 13:00N 38°30' W 008°51'0 0.0
2018-Jun-11 12:12N 38°30' W 008°51'0 0.0
2018-Jun-11 12:00N 38°30' W 008°51'0 0.0
2018-Jun-11 11:30N 38°30' W 008°51'0 0.0
2018-Jun-11 10:48N 38°30' W 008°51'0 0.0
2018-Jun-11 10:24N 38°30' W 008°51'0 0.0
2018-Jun-11 10:00N 38°30' W 008°51'0 0.0
2018-Jun-11 09:06N 38°30' W 008°51'0 0.0
2018-Jun-11 09:00N 38°30' W 008°51'0 0.0
2018-Jun-11 07:30N 38°30' W 008°51'0 0.0
2018-Jun-11 06:00N 38°30' W 008°51'0 0.0
2018-Jun-11 05:30N 38°30' W 008°51'0 0.0
2018-Jun-11 04:42N 38°30' W 008°51'0 0.0
2018-Jun-11 04:24N 38°30' W 008°51'0 0.0
2018-Jun-11 04:00N 38°30' W 008°51'0 0.0
2018-Jun-11 03:30N 38°30' W 008°51'0 0.0
2018-Jun-11 02:54N 38°30' W 008°51'0 0.0
2018-Jun-11 02:24N 38°30' W 008°51'0 0.0
2018-Jun-11 01:30N 38°30' W 008°51'0 0.0
2018-Jun-11 01:00N 38°30' W 008°51'0 0.0
2018-Jun-11 00:06N 38°30' W 008°51'0 0.0
2018-Jun-11 00:00N 38°30' W 008°51'0 0.0
2018-Jun-10 23:21N 38°30' W 008°51'0 0.0
2018-Jun-10 22:24N 38°30' W 008°51'0 0.0
2018-Jun-10 22:00N 38°30' W 008°51'0 0.0
2018-Jun-10 21:09N 38°30' W 008°51'0 0.0
2018-Jun-10 21:00N 38°30' W 008°51'0 0.0
2018-Jun-10 20:30N 38°30' W 008°51'0 0.0
2018-Jun-10 19:57N 38°30' W 008°51'0 0.0
2018-Jun-10 19:27N 38°30' W 008°51'0 0.0
2018-Jun-10 18:09N 38°30' W 008°51'0 0.0
2018-Jun-10 16:00N 38°30' W 008°51'0 0.0
2018-Jun-10 15:30N 38°30' W 008°51'0 0.0
2018-Jun-10 14:00N 38°30' W 008°51'0 0.0
2018-Jun-10 13:15N 38°30' W 008°51'0 0.0
2018-Jun-10 13:00N 38°30' W 008°51'0 0.0
2018-Jun-10 11:48N 38°30' W 008°51'0 0.0
2018-Jun-10 11:30N 38°30' W 008°51'0 0.0
2018-Jun-10 11:00N 38°30' W 008°51'0 0.0
2018-Jun-10 08:12N 38°30' W 008°51'0 0.0
2018-Jun-10 07:54N 38°30' W 008°51'0 0.0
2018-Jun-10 07:24N 38°30' W 008°51'0 0.0
2018-Jun-10 07:00N 38°30' W 008°51'0 0.0
2018-Jun-10 06:27N 38°30' W 008°51'0 0.0
2018-Jun-10 06:00N 38°30' W 008°51'0 0.0
2018-Jun-10 05:30N 38°30' W 008°51'0 0.0
2018-Jun-10 04:57N 38°30' W 008°51'0 0.0
2018-Jun-10 03:30N 38°30' W 008°51'0 0.0
2018-Jun-10 02:54N 38°30' W 008°51'0 0.0
2018-Jun-10 02:18N 38°30' W 008°51'0 0.0
2018-Jun-10 01:54N 38°30' W 008°51'0 0.0
2018-Jun-10 01:30N 38°30' W 008°51'0 0.0
2018-Jun-10 00:54N 38°30' W 008°51'0 0.0
2018-Jun-09 22:30N 38°30' W 008°51'0 0.0
2018-Jun-09 21:54N 38°30' W 008°51'0 0.0
2018-Jun-09 19:57N 38°30' W 008°51'0 0.0
2018-Jun-09 18:27N 38°30' W 008°51'0 0.0
2018-Jun-09 17:09N 38°30' W 008°51'0 0.0
2018-Jun-09 16:51N 38°30' W 008°51'0 0.0
2018-Jun-09 16:18N 38°30' W 008°51'0 0.0
2018-Jun-09 15:42N 38°30' W 008°51'0 0.0
2018-Jun-09 15:30N 38°30' W 008°51'0 0.0
2018-Jun-09 12:42N 38°30' W 008°51'0 0.0
2018-Jun-09 11:36N 38°30' W 008°51'0 0.0
2018-Jun-09 11:18N 38°30' W 008°51'0 0.0
2018-Jun-09 09:51N 38°30' W 008°51'0 0.0
2018-Jun-09 09:27N 38°30' W 008°51'0 0.0
2018-Jun-09 09:00N 38°30' W 008°51'0 0.0
2018-Jun-09 08:21N 38°30' W 008°51'0 0.0
2018-Jun-09 08:00N 38°30' W 008°51'0 0.0
2018-Jun-09 07:21N 38°30' W 008°51'0 0.0
2018-Jun-09 07:00N 38°30' W 008°51'0 0.0
2018-Jun-09 06:09N 38°30' W 008°51'  
Track history (hours):
 
Tides and Currents Weather Stations Pressure Air Temp Water Temp Dewpoint Dewpoint Depression Visibility Wind Speed Wind Dir Waves Ship Positions

Pretty Universe

Last reported at 2018-Jun-19 05:59 UTC. Time now 2018-Jun-19 12:20 UTC.
Position N 51°47' E 002°37'.

Length 180 m; draft 6.3 m.

Type: Cargo ship. MMSI: 538004922.

Date/timePositionNaut miles runAvg speedWind from/ knotsBaromVisibWave heightAir tempDewpointWater temp
2018-Jun-19 05:59N 51°47' E 002°37'715.4
2018-Jun-19 05:30N 51°42' E 002°30'815.4
2018-Jun-19 05:00N 51°36' E 002°21'815.6
2018-Jun-19 04:30N 51°30' E 002°13'815.5
2018-Jun-19 04:00N 51°24' E 002°04'815.4
2018-Jun-19 03:31N 51°18' E 001°57'815.6
2018-Jun-19 03:00N 51°12' E 001°49'815.3
2018-Jun-19 02:31N 51°06' E 001°42'815.4
2018-Jun-19 02:00N 50°59' E 001°36'815.2
2018-Jun-19 01:31N 50°53' E 001°28'814.5
2018-Jun-19 00:58N 50°46' E 001°25'713.8
2018-Jun-19 00:27N 50°40' E 001°19'1114.2
2018-Jun-18 23:40N 50°32' E 001°06'314.2
2018-Jun-18 23:27N 50°30' E 001°02'713.9
2018-Jun-18 22:57N 50°28' E 000°52'3713.4
2018-Jun-18 20:11N 50°18' W 000°04'512.4
2018-Jun-18 19:49N 50°17' W 000°11'412.1
2018-Jun-18 19:29N 50°16' W 000°17'1311.6
2018-Jun-18 18:24N 50°13' W 000°36'4111.6
2018-Jun-18 14:51N 50°01' W 001°38'613.8
2018-Jun-18 14:27N 49°60' W 001°46'1214.6
2018-Jun-18 13:39N 49°57' W 002°04'315.4
2018-Jun-18 13:26N 49°56' W 002°09'2815.6
2018-Jun-18 11:39N 49°48' W 002°50'1515.3
2018-Jun-18 10:41N 49°42' W 003°11'415.2
2018-Jun-18 10:25N 49°40' W 003°17'2115.1
2018-Jun-18 09:03N 49°30' W 003°45'615.2
2018-Jun-18 08:40N 49°27' W 003°53'315.3
2018-Jun-18 08:27N 49°26' W 003°57'715.2
2018-Jun-18 07:59N 49°22' W 004°06'915.1
2018-Jun-18 07:22N 49°18' W 004°19'714.9
2018-Jun-18 06:54N 49°14' W 004°28'614.9
2018-Jun-18 06:30N 49°11' W 004°36'714.7
2018-Jun-18 06:01N 49°08' W 004°46'714.6
2018-Jun-18 05:31N 49°04' W 004°55'714.2
2018-Jun-18 05:00N 49°01' W 005°05'714.0
2018-Jun-18 04:30N 48°57' W 005°14'713.8
2018-Jun-18 03:59N 48°53' W 005°23'713.4
2018-Jun-18 03:28N 48°49' W 005°32'52012.3
2018-Jun-16 09:02N 40°42' W 009°50'311.1
2018-Jun-16 08:45N 40°39' W 009°50'311.2
2018-Jun-16 08:31N 40°36' W 009°50'611.1
2018-Jun-16 07:59N 40°30' W 009°51'510.9
2018-Jun-16 07:29N 40°25' W 009°51'1710.7
2018-Jun-16 05:56N 40°09' W 009°50'510.7
2018-Jun-16 05:30N 40°04' W 009°50'610.6
2018-Jun-16 04:56N 39°58' W 009°50'410.6
2018-Jun-16 04:31N 39°53' W 009°50'510.3
2018-Jun-16 04:00N 39°48' W 009°50'510.6
2018-Jun-16 03:30N 39°43' W 009°50'710.4
2018-Jun-16 02:52N 39°36' W 009°51'410.1
2018-Jun-16 02:30N 39°33' W 009°51'510.3
2018-Jun-16 02:01N 39°27' W 009°51'510.2
2018-Jun-16 01:30N 39°22' W 009°52'510.2
2018-Jun-16 01:01N 39°17' W 009°52'510.0
2018-Jun-16 00:30N 39°12' W 009°52'510.5
2018-Jun-16 00:00N 39°07' W 009°52'510.8
2018-Jun-15 23:31N 39°02' W 009°52'510.9
2018-Jun-15 23:01N 38°56' W 009°52'510.8
2018-Jun-15 22:31N 38°51' W 009°52'611.2
2018-Jun-15 22:00N 38°45' W 009°51'510.8
2018-Jun-15 21:31N 38°40' W 009°50'510.5
2018-Jun-15 21:00N 38°36' W 009°46'611.6
2018-Jun-15 20:30N 38°33' W 009°39'612.2
2018-Jun-15 20:01N 38°30' W 009°33'612.4
2018-Jun-15 19:30N 38°27' W 009°26'713.1
2018-Jun-15 19:01N 38°24' W 009°18'612.6
2018-Jun-15 18:30N 38°22' W 009°11'713.5
2018-Jun-15 18:00N 38°24' W 009°02'611.0
2018-Jun-15 17:30N 38°28' W 008°57'5 9.9
2018-Jun-15 17:01N 38°31' W 008°52'1 2.2
2018-Jun-15 16:24N 38°30' W 008°51'0 0.0
2018-Jun-15 15:57N 38°30' W 008°51'0 0.0
2018-Jun-15 15:24N 38°30' W 008°51'0 0.0
2018-Jun-15 15:00N 38°30' W 008°51'0 0.0
2018-Jun-15 14:30N 38°30' W 008°51'0 0.0
2018-Jun-15 14:00N 38°30' W 008°51'0 0.0
2018-Jun-15 13:31N 38°30' W 008°51'0 0.0
2018-Jun-15 12:48N 38°30' W 008°51'0 0.0
2018-Jun-15 12:24N 38°30' W 008°51'0 0.0
2018-Jun-15 11:45N 38°30' W 008°51'0 0.0
2018-Jun-15 11:21N 38°30' W 008°51'0 0.0
2018-Jun-15 09:39N 38°30' W 008°51'0 0.0
2018-Jun-15 09:24N 38°30' W 008°51'0 0.0
2018-Jun-15 09:00N 38°30' W 008°51'0 0.0
2018-Jun-15 06:09N 38°30' W 008°51'0 0.0
2018-Jun-15 05:57N 38°30' W 008°51'0 0.0
2018-Jun-15 05:21N 38°30' W 008°51'0 0.0
2018-Jun-15 05:00N 38°30' W 008°51'0 0.0
2018-Jun-15 04:30N 38°30' W 008°51'0 0.0
2018-Jun-15 02:12N 38°30' W 008°51'0 0.0
2018-Jun-15 02:00N 38°30' W 008°51'0 0.0
2018-Jun-15 01:27N 38°30' W 008°51'0 0.0
2018-Jun-15 00:45N 38°30' W 008°51'0 0.0
2018-Jun-15 00:27N 38°30' W 008°51'0 0.0
2018-Jun-14 23:48N 38°30' W 008°51'0 0.0
2018-Jun-14 23:30N 38°30' W 008°51'0 0.0
2018-Jun-14 23:00N 38°30' W 008°51'0 0.0
2018-Jun-14 22:30N 38°30' W 008°51'0 0.0
2018-Jun-14 22:00N 38°30' W 008°51'0 0.0
2018-Jun-14 21:30N 38°30' W 008°51'0 0.0
2018-Jun-14 20:48N 38°30' W 008°51'0 0.0
2018-Jun-14 20:27N 38°30' W 008°51'0 0.0
2018-Jun-14 20:00N 38°30' W 008°51'0 0.0
2018-Jun-14 19:30N 38°30' W 008°51'0 0.0
2018-Jun-14 19:00N 38°30' W 008°51'0 0.0
2018-Jun-14 18:30N 38°30' W 008°51'0 0.0
2018-Jun-14 18:00N 38°30' W 008°51'0 0.0
2018-Jun-14 17:30N 38°30' W 008°51'0 0.0
2018-Jun-14 16:57N 38°30' W 008°51'0 0.0
2018-Jun-14 16:30N 38°30' W 008°51'0 0.0
2018-Jun-14 15:54N 38°30' W 008°51'0 0.0
2018-Jun-14 15:18N 38°30' W 008°51'0 0.0
2018-Jun-14 15:00N 38°30' W 008°51'0 0.0
2018-Jun-14 14:30N 38°30' W 008°51'0 0.0
2018-Jun-14 13:57N 38°30' W 008°51'0 0.0
2018-Jun-14 13:30N 38°30' W 008°51'0 0.0
2018-Jun-14 12:39N 38°30' W 008°51'0 0.0
2018-Jun-14 12:30N 38°30' W 008°51'0 0.0
2018-Jun-14 12:00N 38°30' W 008°51'0 0.0
2018-Jun-14 11:30N 38°30' W 008°51'0 0.0
2018-Jun-14 10:42N 38°30' W 008°51'0 0.0
2018-Jun-14 10:18N 38°30' W 008°51'0 0.0
2018-Jun-14 09:15N 38°30' W 008°51'0 0.0
2018-Jun-14 09:00N 38°30' W 008°51'0 0.0
2018-Jun-14 07:57N 38°30' W 008°51'0 0.0
2018-Jun-14 07:30N 38°30' W 008°51'0 0.0
2018-Jun-14 06:54N 38°30' W 008°51'0 0.0
2018-Jun-14 06:30N 38°30' W 008°51'0 0.0
2018-Jun-14 05:57N 38°30' W 008°51'0 0.0
2018-Jun-14 05:30N 38°30' W 008°51'0 0.0
2018-Jun-14 05:00N 38°30' W 008°51'0 0.0
2018-Jun-14 04:30N 38°30' W 008°51'0 0.0
2018-Jun-14 03:30N 38°30' W 008°51'0 0.0
2018-Jun-14 03:00N 38°30' W 008°51'0 0.0
2018-Jun-14 02:24N 38°30' W 008°51'0 0.0
2018-Jun-14 01:36N 38°30' W 008°51'0 0.1
2018-Jun-14 01:30N 38°30' W 008°51'0 0.0
2018-Jun-14 00:42N 38°30' W 008°51'0 0.0
2018-Jun-14 00:27N 38°30' W 008°51'0 0.0
2018-Jun-13 23:36N 38°30' W 008°51'0 0.0
2018-Jun-13 23:30N 38°30' W 008°51'0 0.0
2018-Jun-13 23:00N 38°30' W 008°51'0 0.0
2018-Jun-13 22:09N 38°30' W 008°51'0 0.0
2018-Jun-13 21:57N 38°30' W 008°51'0 0.0
2018-Jun-13 21:12N 38°30' W 008°51'0 0.0
2018-Jun-13 17:48N 38°30' W 008°51'0 0.0
2018-Jun-13 17:24N 38°30' W 008°51'0 0.0
2018-Jun-13 16:36N 38°30' W 008°51'0 0.0
2018-Jun-13 16:12N 38°30' W 008°51'0 0.0
2018-Jun-13 13:15N 38°30' W 008°51'0 0.0
2018-Jun-13 13:00N 38°30' W 008°51'0 0.0
2018-Jun-13 11:45N 38°30' W 008°51'0 0.0
2018-Jun-13 09:27N 38°30' W 008°51'0 0.0
2018-Jun-13 08:54N 38°30' W 008°51'0 0.0
2018-Jun-13 08:24N 38°30' W 008°51'0 0.0
2018-Jun-13 07:57N 38°30' W 008°51'0 0.0
2018-Jun-13 07:12N 38°30' W 008°51'0 0.0
2018-Jun-13 07:00N 38°30' W 008°51'0 0.0
2018-Jun-13 05:48N 38°30' W 008°51'0 0.0
2018-Jun-13 05:12N 38°30' W 008°51'0 0.0
2018-Jun-13 04:57N 38°30' W 008°51'0 0.0
2018-Jun-13 02:42N 38°30' W 008°51'0 0.0
2018-Jun-13 02:18N 38°30' W 008°51'0 0.0
2018-Jun-13 01:54N 38°30' W 008°51'0 0.0
2018-Jun-13 01:30N 38°30' W 008°51'0 0.0
2018-Jun-13 01:00N 38°30' W 008°51'0 0.0
2018-Jun-13 00:12N 38°30' W 008°51'0 0.0
2018-Jun-13 00:00N 38°30' W 008°51'0 0.0
2018-Jun-12 23:30N 38°30' W 008°51'0 0.0
2018-Jun-12 20:24N 38°30' W 008°51'0 0.0
2018-Jun-12 19:00N 38°30' W 008°51'0 0.0
2018-Jun-12 18:24N 38°30' W 008°51'0 0.0
2018-Jun-12 17:18N 38°30' W 008°51'0 0.0
2018-Jun-12 15:54N 38°30' W 008°51'0 0.0
2018-Jun-12 14:48N 38°30' W 008°51'0 0.0
2018-Jun-12 14:24N 38°30' W 008°51'0 0.0
2018-Jun-12 12:54N 38°30' W 008°51'0 0.0
2018-Jun-12 11:42N 38°30' W 008°51'0 0.0
2018-Jun-12 11:24N 38°30' W 008°51'0 0.0
2018-Jun-12 10:48N 38°30' W 008°51'0 0.0
2018-Jun-12 10:24N 38°30' W 008°51'0 0.0
2018-Jun-12 10:00N 38°30' W 008°51'0 0.0
2018-Jun-12 09:30N 38°30' W 008°51'0 0.0
2018-Jun-12 09:00N 38°30' W 008°51'0 0.0
2018-Jun-12 07:30N 38°30' W 008°51'0 0.0
2018-Jun-12 06:54N 38°30' W 008°51'0 0.0
2018-Jun-12 06:18N 38°30' W 008°51'0 0.0
2018-Jun-12 06:00N 38°30' W 008°51'0 0.0
2018-Jun-12 05:18N 38°30' W 008°51'0 0.0
2018-Jun-12 04:48N 38°30' W 008°51'0 0.0
2018-Jun-12 04:15N 38°30' W 008°51'0 0.0
2018-Jun-12 02:48N 38°30' W 008°51'0 0.0
2018-Jun-12 02:30N 38°30' W 008°51'0 0.0
2018-Jun-11 23:45N 38°30' W 008°51'0 0.0
2018-Jun-11 23:18N 38°30' W 008°51'0 0.0
2018-Jun-11 22:12N 38°30' W 008°51'0 0.0
2018-Jun-11 21:57N 38°30' W 008°51'0 0.0
2018-Jun-11 20:27N 38°30' W 008°51'0 0.0
2018-Jun-11 19:57N 38°30' W 008°51'0 0.0
2018-Jun-11 19:30N 38°30' W 008°51'0 0.0
2018-Jun-11 18:57N 38°30' W 008°51'0 0.0
2018-Jun-11 18:24N 38°30' W 008°51'0 0.0
2018-Jun-11 17:54N 38°30' W 008°51'0 0.0
2018-Jun-11 16:24N 38°30' W 008°51'0 0.0
2018-Jun-11 16:00N 38°30' W 008°51'0 0.0
2018-Jun-11 15:15N 38°30' W 008°51'0 0.0
2018-Jun-11 15:00N 38°30' W 008°51'0 0.0
2018-Jun-11 14:12N 38°30' W 008°51'0 0.0
2018-Jun-11 14:00N 38°30' W 008°51'0 0.0
2018-Jun-11 13:30N 38°30' W 008°51'0 0.0
2018-Jun-11 13:00N 38°30' W 008°51'0 0.0
2018-Jun-11 12:12N 38°30' W 008°51'0 0.0
2018-Jun-11 12:00N 38°30' W 008°51'0 0.0
2018-Jun-11 11:30N 38°30' W 008°51'0 0.0
2018-Jun-11 10:48N 38°30' W 008°51'0 0.0
2018-Jun-11 10:24N 38°30' W 008°51'0 0.0
2018-Jun-11 10:00N 38°30' W 008°51'0 0.0
2018-Jun-11 09:06N 38°30' W 008°51'0 0.0
2018-Jun-11 09:00N 38°30' W 008°51'0 0.0
2018-Jun-11 07:30N 38°30' W 008°51'0 0.0
2018-Jun-11 06:00N 38°30' W 008°51'0 0.0
2018-Jun-11 05:30N 38°30' W 008°51'0 0.0
2018-Jun-11 04:42N 38°30' W 008°51'0 0.0
2018-Jun-11 04:24N 38°30' W 008°51'0 0.0
2018-Jun-11 04:00N 38°30' W 008°51'0 0.0
2018-Jun-11 03:30N 38°30' W 008°51'0 0.0
2018-Jun-11 02:54N 38°30' W 008°51'0 0.0
2018-Jun-11 02:24N 38°30' W 008°51'0 0.0
2018-Jun-11 01:30N 38°30' W 008°51'0 0.0
2018-Jun-11 01:00N 38°30' W 008°51'0 0.0
2018-Jun-11 00:06N 38°30' W 008°51'0 0.0
2018-Jun-11 00:00N 38°30' W 008°51'0 0.0
2018-Jun-10 23:21N 38°30' W 008°51'0 0.0
2018-Jun-10 22:24N 38°30' W 008°51'0 0.0
2018-Jun-10 22:00N 38°30' W 008°51'0 0.0
2018-Jun-10 21:09N 38°30' W 008°51'0 0.0
2018-Jun-10 21:00N 38°30' W 008°51'0 0.0
2018-Jun-10 20:30N 38°30' W 008°51'0 0.0
2018-Jun-10 19:57N 38°30' W 008°51'0 0.0
2018-Jun-10 19:27N 38°30' W 008°51'0 0.0
2018-Jun-10 18:09N 38°30' W 008°51'0 0.0
2018-Jun-10 16:00N 38°30' W 008°51'0 0.0
2018-Jun-10 15:30N 38°30' W 008°51'0 0.0
2018-Jun-10 14:00N 38°30' W 008°51'0 0.0
2018-Jun-10 13:15N 38°30' W 008°51'0 0.0
2018-Jun-10 13:00N 38°30' W 008°51'0 0.0
2018-Jun-10 11:48N 38°30' W 008°51'0 0.0
2018-Jun-10 11:30N 38°30' W 008°51'0 0.0
2018-Jun-10 11:00N 38°30' W 008°51'0 0.0
2018-Jun-10 08:12N 38°30' W 008°51'0 0.0
2018-Jun-10 07:54N 38°30' W 008°51'0 0.0
2018-Jun-10 07:24N 38°30' W 008°51'0 0.0
2018-Jun-10 07:00N 38°30' W 008°51'0 0.0
2018-Jun-10 06:27N 38°30' W 008°51'0 0.0
2018-Jun-10 06:00N 38°30' W 008°51'0 0.0
2018-Jun-10 05:30N 38°30' W 008°51'0 0.0
2018-Jun-10 04:57N 38°30' W 008°51'0 0.0
2018-Jun-10 03:30N 38°30' W 008°51'0 0.0
2018-Jun-10 02:54N 38°30' W 008°51'0 0.0
2018-Jun-10 02:18N 38°30' W 008°51'0 0.0
2018-Jun-10 01:54N 38°30' W 008°51'0 0.0
2018-Jun-10 01:30N 38°30' W 008°51'0 0.0
2018-Jun-10 00:54N 38°30' W 008°51'0 0.0
2018-Jun-09 22:30N 38°30' W 008°51'0 0.0
2018-Jun-09 21:54N 38°30' W 008°51'0 0.0
2018-Jun-09 19:57N 38°30' W 008°51'0 0.0
2018-Jun-09 18:27N 38°30' W 008°51'0 0.0
2018-Jun-09 17:09N 38°30' W 008°51'0 0.0
2018-Jun-09 16:51N 38°30' W 008°51'0 0.0
2018-Jun-09 16:18N 38°30' W 008°51'0 0.0
2018-Jun-09 15:42N 38°30' W 008°51'0 0.0
2018-Jun-09 15:30N 38°30' W 008°51'0 0.0
2018-Jun-09 12:42N 38°30' W 008°51'0 0.0
2018-Jun-09 11:36N 38°30' W 008°51'0 0.0
2018-Jun-09 11:18N 38°30' W 008°51'0 0.0
2018-Jun-09 09:51N 38°30' W 008°51'0 0.0
2018-Jun-09 09:27N 38°30' W 008°51'0 0.0
2018-Jun-09 09:00N 38°30' W 008°51'0 0.0
2018-Jun-09 08:21N 38°30' W 008°51'0 0.0
2018-Jun-09 08:00N 38°30' W 008°51'0 0.0
2018-Jun-09 07:21N 38°30' W 008°51'0 0.0
2018-Jun-09 07:00N 38°30' W 008°51'0 0.0
2018-Jun-09 06:09N 38°30' W 008°51'  

Dump ship's entire track history